sensor_id;sensor_type;location;lat;lon;timestamp;P1;durP1;ratioP1;P2;durP2;ratioP2
31680;SDS011;18281;51.364;9.566;2022-12-07T00:02:15;11.40;;;7.03;;
31680;SDS011;18281;51.364;9.566;2022-12-07T00:04:40;10.25;;;6.50;;
31680;SDS011;18281;51.364;9.566;2022-12-07T00:07:05;13.20;;;6.72;;
31680;SDS011;18281;51.364;9.566;2022-12-07T00:09:31;10.23;;;6.95;;
31680;SDS011;18281;51.364;9.566;2022-12-07T00:11:56;9.93;;;6.60;;
31680;SDS011;18281;51.364;9.566;2022-12-07T00:14:21;11.52;;;7.20;;
31680;SDS011;18281;51.364;9.566;2022-12-07T00:16:48;10.70;;;6.85;;
31680;SDS011;18281;51.364;9.566;2022-12-07T00:19:15;13.07;;;7.65;;
31680;SDS011;18281;51.364;9.566;2022-12-07T00:21:40;15.80;;;7.43;;
31680;SDS011;18281;51.364;9.566;2022-12-07T00:24:06;12.85;;;7.65;;
31680;SDS011;18281;51.364;9.566;2022-12-07T00:26:32;12.45;;;7.70;;
31680;SDS011;18281;51.364;9.566;2022-12-07T00:29:00;9.85;;;7.13;;
31680;SDS011;18281;51.364;9.566;2022-12-07T00:31:34;12.80;;;7.72;;
31680;SDS011;18281;51.364;9.566;2022-12-07T00:34:03;11.32;;;7.15;;
31680;SDS011;18281;51.364;9.566;2022-12-07T00:36:36;12.38;;;8.32;;
31680;SDS011;18281;51.364;9.566;2022-12-07T00:39:02;11.00;;;7.75;;
31680;SDS011;18281;51.364;9.566;2022-12-07T00:41:28;11.40;;;7.72;;
31680;SDS011;18281;51.364;9.566;2022-12-07T00:43:54;13.65;;;8.40;;
31680;SDS011;18281;51.364;9.566;2022-12-07T00:46:20;12.43;;;9.00;;
31680;SDS011;18281;51.364;9.566;2022-12-07T00:48:46;12.38;;;8.25;;
31680;SDS011;18281;51.364;9.566;2022-12-07T00:51:13;12.13;;;8.13;;
31680;SDS011;18281;51.364;9.566;2022-12-07T00:53:39;11.82;;;8.15;;
31680;SDS011;18281;51.364;9.566;2022-12-07T00:56:09;12.48;;;8.23;;
31680;SDS011;18281;51.364;9.566;2022-12-07T00:58:37;13.75;;;8.93;;
31680;SDS011;18281;51.364;9.566;2022-12-07T01:01:03;12.63;;;9.25;;
31680;SDS011;18281;51.364;9.566;2022-12-07T01:03:30;14.13;;;8.88;;
31680;SDS011;18281;51.364;9.566;2022-12-07T01:05:56;14.80;;;9.40;;
31680;SDS011;18281;51.364;9.566;2022-12-07T01:08:22;14.80;;;9.23;;
31680;SDS011;18281;51.364;9.566;2022-12-07T01:10:49;14.52;;;8.55;;
31680;SDS011;18281;51.364;9.566;2022-12-07T01:13:15;13.32;;;8.50;;
31680;SDS011;18281;51.364;9.566;2022-12-07T01:15:41;13.43;;;9.57;;
31680;SDS011;18281;51.364;9.566;2022-12-07T01:18:08;14.25;;;9.05;;
31680;SDS011;18281;51.364;9.566;2022-12-07T01:20:33;13.43;;;9.43;;
31680;SDS011;18281;51.364;9.566;2022-12-07T01:22:59;15.23;;;9.93;;
31680;SDS011;18281;51.364;9.566;2022-12-07T01:25:24;16.55;;;10.30;;
31680;SDS011;18281;51.364;9.566;2022-12-07T01:27:50;15.68;;;9.98;;
31680;SDS011;18281;51.364;9.566;2022-12-07T01:30:15;14.70;;;9.77;;
31680;SDS011;18281;51.364;9.566;2022-12-07T01:32:41;14.43;;;9.90;;
31680;SDS011;18281;51.364;9.566;2022-12-07T01:35:06;14.77;;;9.95;;
31680;SDS011;18281;51.364;9.566;2022-12-07T01:37:35;17.17;;;10.43;;
31680;SDS011;18281;51.364;9.566;2022-12-07T01:40:02;16.02;;;10.13;;
31680;SDS011;18281;51.364;9.566;2022-12-07T01:42:29;19.67;;;10.40;;
31680;SDS011;18281;51.364;9.566;2022-12-07T01:47:58;16.15;;;10.57;;
31680;SDS011;18281;51.364;9.566;2022-12-07T01:50:24;16.55;;;10.10;;
31680;SDS011;18281;51.364;9.566;2022-12-07T01:52:52;18.15;;;11.18;;
31680;SDS011;18281;51.364;9.566;2022-12-07T01:55:21;17.05;;;11.40;;
31680;SDS011;18281;51.364;9.566;2022-12-07T01:57:48;20.17;;;11.63;;
31680;SDS011;18281;51.364;9.566;2022-12-07T02:00:17;15.75;;;10.35;;
31680;SDS011;18281;51.364;9.566;2022-12-07T02:02:46;19.55;;;11.95;;
31680;SDS011;18281;51.364;9.566;2022-12-07T02:05:27;18.48;;;11.60;;
31680;SDS011;18281;51.364;9.566;2022-12-07T02:07:54;19.92;;;12.02;;
31680;SDS011;18281;51.364;9.566;2022-12-07T02:10:29;17.42;;;11.07;;
31680;SDS011;18281;51.364;9.566;2022-12-07T02:13:00;18.50;;;11.75;;
31680;SDS011;18281;51.364;9.566;2022-12-07T02:15:31;19.05;;;12.10;;
31680;SDS011;18281;51.364;9.566;2022-12-07T02:18:09;16.58;;;10.65;;
31680;SDS011;18281;51.364;9.566;2022-12-07T02:20:42;20.65;;;12.25;;
31680;SDS011;18281;51.364;9.566;2022-12-07T02:31:34;18.13;;;11.25;;
31680;SDS011;18281;51.364;9.566;2022-12-07T02:34:05;20.38;;;12.35;;
31680;SDS011;18281;51.364;9.566;2022-12-07T02:36:42;22.67;;;11.90;;
31680;SDS011;18281;51.364;9.566;2022-12-07T02:39:16;19.70;;;12.30;;
31680;SDS011;18281;51.364;9.566;2022-12-07T02:41:48;20.33;;;12.35;;
31680;SDS011;18281;51.364;9.566;2022-12-07T02:44:18;21.45;;;12.32;;
31680;SDS011;18281;51.364;9.566;2022-12-07T02:46:49;19.65;;;12.13;;
31680;SDS011;18281;51.364;9.566;2022-12-07T02:49:18;21.23;;;12.38;;
31680;SDS011;18281;51.364;9.566;2022-12-07T02:51:46;20.27;;;13.02;;
31680;SDS011;18281;51.364;9.566;2022-12-07T02:54:13;21.60;;;12.95;;
31680;SDS011;18281;51.364;9.566;2022-12-07T03:13:25;19.60;;;12.38;;
31680;SDS011;18281;51.364;9.566;2022-12-07T03:18:31;23.52;;;13.90;;
31680;SDS011;18281;51.364;9.566;2022-12-07T03:21:05;26.98;;;14.10;;
31680;SDS011;18281;51.364;9.566;2022-12-07T03:23:37;21.55;;;13.43;;
31680;SDS011;18281;51.364;9.566;2022-12-07T03:26:05;22.40;;;13.33;;
31680;SDS011;18281;51.364;9.566;2022-12-07T03:28:36;25.15;;;14.45;;
31680;SDS011;18281;51.364;9.566;2022-12-07T03:31:18;21.92;;;13.63;;
31680;SDS011;18281;51.364;9.566;2022-12-07T03:33:59;19.33;;;12.73;;
31680;SDS011;18281;51.364;9.566;2022-12-07T03:42:31;22.45;;;11.75;;
31680;SDS011;18281;51.364;9.566;2022-12-07T03:44:58;21.60;;;12.85;;
31680;SDS011;18281;51.364;9.566;2022-12-07T03:47:27;20.48;;;13.02;;
31680;SDS011;18281;51.364;9.566;2022-12-07T03:50:02;22.85;;;13.02;;
31680;SDS011;18281;51.364;9.566;2022-12-07T03:55:13;24.00;;;13.15;;
31680;SDS011;18281;51.364;9.566;2022-12-07T03:57:41;21.67;;;13.27;;
31680;SDS011;18281;51.364;9.566;2022-12-07T04:00:10;22.98;;;14.07;;
31680;SDS011;18281;51.364;9.566;2022-12-07T04:02:36;20.83;;;13.73;;
31680;SDS011;18281;51.364;9.566;2022-12-07T04:05:02;21.20;;;12.20;;
31680;SDS011;18281;51.364;9.566;2022-12-07T04:07:28;21.40;;;12.50;;
31680;SDS011;18281;51.364;9.566;2022-12-07T04:09:53;22.05;;;12.40;;
31680;SDS011;18281;51.364;9.566;2022-12-07T04:12:20;19.75;;;12.43;;
31680;SDS011;18281;51.364;9.566;2022-12-07T04:14:46;20.23;;;11.35;;
31680;SDS011;18281;51.364;9.566;2022-12-07T04:17:11;20.83;;;12.55;;
31680;SDS011;18281;51.364;9.566;2022-12-07T04:19:37;22.55;;;12.60;;
31680;SDS011;18281;51.364;9.566;2022-12-07T04:22:03;25.73;;;12.60;;
31680;SDS011;18281;51.364;9.566;2022-12-07T04:24:29;22.48;;;12.27;;
31680;SDS011;18281;51.364;9.566;2022-12-07T04:26:54;22.08;;;12.52;;
31680;SDS011;18281;51.364;9.566;2022-12-07T04:29:20;18.27;;;12.07;;
31680;SDS011;18281;51.364;9.566;2022-12-07T04:31:46;20.63;;;12.32;;
31680;SDS011;18281;51.364;9.566;2022-12-07T04:34:12;20.35;;;12.43;;
31680;SDS011;18281;51.364;9.566;2022-12-07T04:36:38;18.08;;;11.90;;
31680;SDS011;18281;51.364;9.566;2022-12-07T04:39:05;20.95;;;12.25;;
31680;SDS011;18281;51.364;9.566;2022-12-07T04:41:32;23.40;;;13.55;;
31680;SDS011;18281;51.364;9.566;2022-12-07T04:44:02;20.65;;;12.75;;
31680;SDS011;18281;51.364;9.566;2022-12-07T04:46:32;19.70;;;11.90;;
31680;SDS011;18281;51.364;9.566;2022-12-07T04:48:57;21.50;;;12.70;;
31680;SDS011;18281;51.364;9.566;2022-12-07T04:51:24;19.90;;;11.73;;
31680;SDS011;18281;51.364;9.566;2022-12-07T04:53:52;20.38;;;11.98;;
31680;SDS011;18281;51.364;9.566;2022-12-07T04:56:18;22.40;;;12.82;;
31680;SDS011;18281;51.364;9.566;2022-12-07T04:58:44;18.45;;;11.93;;
31680;SDS011;18281;51.364;9.566;2022-12-07T05:01:12;18.90;;;11.82;;
31680;SDS011;18281;51.364;9.566;2022-12-07T05:03:38;21.00;;;12.55;;
31680;SDS011;18281;51.364;9.566;2022-12-07T05:06:04;20.33;;;12.95;;
31680;SDS011;18281;51.364;9.566;2022-12-07T05:08:31;23.20;;;13.50;;
31680;SDS011;18281;51.364;9.566;2022-12-07T05:10:57;20.15;;;12.38;;
31680;SDS011;18281;51.364;9.566;2022-12-07T05:13:23;18.67;;;12.27;;
31680;SDS011;18281;51.364;9.566;2022-12-07T05:15:49;21.58;;;12.75;;
31680;SDS011;18281;51.364;9.566;2022-12-07T05:18:14;18.13;;;11.57;;
31680;SDS011;18281;51.364;9.566;2022-12-07T05:20:40;20.63;;;12.05;;
31680;SDS011;18281;51.364;9.566;2022-12-07T05:23:07;24.60;;;12.07;;
31680;SDS011;18281;51.364;9.566;2022-12-07T05:25:32;20.73;;;12.18;;
31680;SDS011;18281;51.364;9.566;2022-12-07T05:27:58;21.20;;;12.55;;
31680;SDS011;18281;51.364;9.566;2022-12-07T05:30:23;20.85;;;13.07;;
31680;SDS011;18281;51.364;9.566;2022-12-07T05:32:49;20.30;;;12.32;;
31680;SDS011;18281;51.364;9.566;2022-12-07T05:35:15;18.42;;;11.70;;
31680;SDS011;18281;51.364;9.566;2022-12-07T05:37:40;18.92;;;11.80;;
31680;SDS011;18281;51.364;9.566;2022-12-07T05:40:06;20.65;;;11.70;;
31680;SDS011;18281;51.364;9.566;2022-12-07T05:42:32;19.80;;;12.05;;
31680;SDS011;18281;51.364;9.566;2022-12-07T05:44:58;19.42;;;10.88;;
31680;SDS011;18281;51.364;9.566;2022-12-07T05:47:23;20.20;;;11.95;;
31680;SDS011;18281;51.364;9.566;2022-12-07T05:49:48;21.40;;;11.02;;
31680;SDS011;18281;51.364;9.566;2022-12-07T05:52:14;16.95;;;11.07;;
31680;SDS011;18281;51.364;9.566;2022-12-07T05:54:39;18.23;;;11.38;;
31680;SDS011;18281;51.364;9.566;2022-12-07T05:57:05;19.55;;;11.48;;
31680;SDS011;18281;51.364;9.566;2022-12-07T05:59:30;16.60;;;11.43;;
31680;SDS011;18281;51.364;9.566;2022-12-07T06:01:57;19.35;;;11.65;;
31680;SDS011;18281;51.364;9.566;2022-12-07T06:04:32;16.77;;;11.30;;
31680;SDS011;18281;51.364;9.566;2022-12-07T06:06:59;16.15;;;11.55;;
31680;SDS011;18281;51.364;9.566;2022-12-07T06:09:26;19.00;;;11.40;;
31680;SDS011;18281;51.364;9.566;2022-12-07T06:11:53;20.52;;;10.95;;
31680;SDS011;18281;51.364;9.566;2022-12-07T06:14:37;15.35;;;10.55;;
31680;SDS011;18281;51.364;9.566;2022-12-07T06:17:03;17.15;;;11.13;;
31680;SDS011;18281;51.364;9.566;2022-12-07T06:19:29;18.05;;;11.18;;
31680;SDS011;18281;51.364;9.566;2022-12-07T06:21:55;15.02;;;11.30;;
31680;SDS011;18281;51.364;9.566;2022-12-07T06:24:21;21.15;;;12.05;;
31680;SDS011;18281;51.364;9.566;2022-12-07T06:26:47;18.40;;;11.18;;
31680;SDS011;18281;51.364;9.566;2022-12-07T06:29:13;19.10;;;8.32;;
31680;SDS011;18281;51.364;9.566;2022-12-07T06:31:38;18.92;;;8.77;;
31680;SDS011;18281;51.364;9.566;2022-12-07T06:34:05;14.57;;;8.18;;
31680;SDS011;18281;51.364;9.566;2022-12-07T06:36:33;13.65;;;8.77;;
31680;SDS011;18281;51.364;9.566;2022-12-07T06:38:59;11.23;;;7.28;;
31680;SDS011;18281;51.364;9.566;2022-12-07T06:41:24;12.45;;;7.93;;
31680;SDS011;18281;51.364;9.566;2022-12-07T06:43:50;14.60;;;9.05;;
31680;SDS011;18281;51.364;9.566;2022-12-07T06:46:16;17.95;;;8.88;;
31680;SDS011;18281;51.364;9.566;2022-12-07T06:48:42;15.85;;;9.60;;
31680;SDS011;18281;51.364;9.566;2022-12-07T06:51:08;20.83;;;10.65;;
31680;SDS011;18281;51.364;9.566;2022-12-07T06:53:34;18.65;;;11.38;;
31680;SDS011;18281;51.364;9.566;2022-12-07T06:56:00;16.33;;;9.77;;
31680;SDS011;18281;51.364;9.566;2022-12-07T06:58:26;18.77;;;11.23;;
31680;SDS011;18281;51.364;9.566;2022-12-07T07:00:51;19.20;;;11.98;;
31680;SDS011;18281;51.364;9.566;2022-12-07T07:03:17;17.85;;;10.68;;
31680;SDS011;18281;51.364;9.566;2022-12-07T07:05:43;17.90;;;10.15;;
31680;SDS011;18281;51.364;9.566;2022-12-07T07:08:09;16.30;;;9.68;;
31680;SDS011;18281;51.364;9.566;2022-12-07T07:10:35;13.38;;;9.35;;
31680;SDS011;18281;51.364;9.566;2022-12-07T07:13:01;16.30;;;9.55;;
31680;SDS011;18281;51.364;9.566;2022-12-07T07:15:27;16.30;;;10.60;;
31680;SDS011;18281;51.364;9.566;2022-12-07T07:17:52;14.38;;;9.07;;
31680;SDS011;18281;51.364;9.566;2022-12-07T07:20:18;16.35;;;9.77;;
31680;SDS011;18281;51.364;9.566;2022-12-07T07:22:43;14.27;;;8.73;;
31680;SDS011;18281;51.364;9.566;2022-12-07T07:25:09;21.15;;;9.15;;
31680;SDS011;18281;51.364;9.566;2022-12-07T07:27:34;16.58;;;7.80;;
31680;SDS011;18281;51.364;9.566;2022-12-07T07:29:59;15.95;;;8.18;;
31680;SDS011;18281;51.364;9.566;2022-12-07T07:32:25;16.88;;;8.07;;
31680;SDS011;18281;51.364;9.566;2022-12-07T07:34:50;17.67;;;7.75;;
31680;SDS011;18281;51.364;9.566;2022-12-07T07:37:16;14.73;;;8.35;;
31680;SDS011;18281;51.364;9.566;2022-12-07T07:39:41;12.27;;;6.40;;
31680;SDS011;18281;51.364;9.566;2022-12-07T07:42:06;14.70;;;7.25;;
31680;SDS011;18281;51.364;9.566;2022-12-07T07:44:32;13.70;;;7.45;;
31680;SDS011;18281;51.364;9.566;2022-12-07T07:46:59;18.63;;;7.50;;
31680;SDS011;18281;51.364;9.566;2022-12-07T07:49:24;15.90;;;7.97;;
31680;SDS011;18281;51.364;9.566;2022-12-07T07:51:50;12.02;;;6.93;;
31680;SDS011;18281;51.364;9.566;2022-12-07T07:54:16;18.08;;;7.40;;
31680;SDS011;18281;51.364;9.566;2022-12-07T07:56:41;16.25;;;8.45;;
31680;SDS011;18281;51.364;9.566;2022-12-07T07:59:07;14.68;;;7.72;;
31680;SDS011;18281;51.364;9.566;2022-12-07T08:01:33;12.35;;;8.10;;
31680;SDS011;18281;51.364;9.566;2022-12-07T08:03:58;13.73;;;6.97;;
31680;SDS011;18281;51.364;9.566;2022-12-07T08:06:24;12.32;;;7.38;;
31680;SDS011;18281;51.364;9.566;2022-12-07T08:08:49;10.00;;;7.28;;
31680;SDS011;18281;51.364;9.566;2022-12-07T08:11:14;13.50;;;7.18;;
31680;SDS011;18281;51.364;9.566;2022-12-07T08:13:40;12.35;;;6.95;;
31680;SDS011;18281;51.364;9.566;2022-12-07T08:16:07;16.40;;;7.00;;
31680;SDS011;18281;51.364;9.566;2022-12-07T08:18:35;12.77;;;7.03;;
31680;SDS011;18281;51.364;9.566;2022-12-07T08:21:01;11.68;;;6.85;;
31680;SDS011;18281;51.364;9.566;2022-12-07T08:23:28;10.45;;;6.82;;
31680;SDS011;18281;51.364;9.566;2022-12-07T08:25:53;11.90;;;6.88;;
31680;SDS011;18281;51.364;9.566;2022-12-07T08:28:18;10.75;;;6.35;;
31680;SDS011;18281;51.364;9.566;2022-12-07T08:30:44;10.43;;;7.03;;
31680;SDS011;18281;51.364;9.566;2022-12-07T08:33:09;17.88;;;6.93;;
31680;SDS011;18281;51.364;9.566;2022-12-07T08:35:35;10.20;;;6.13;;
31680;SDS011;18281;51.364;9.566;2022-12-07T08:38:01;14.32;;;6.85;;
31680;SDS011;18281;51.364;9.566;2022-12-07T08:40:27;9.25;;;6.55;;
31680;SDS011;18281;51.364;9.566;2022-12-07T08:42:53;10.75;;;6.88;;
31680;SDS011;18281;51.364;9.566;2022-12-07T08:45:19;10.85;;;5.90;;
31680;SDS011;18281;51.364;9.566;2022-12-07T08:47:50;14.18;;;6.53;;
31680;SDS011;18281;51.364;9.566;2022-12-07T08:50:20;13.32;;;6.60;;
31680;SDS011;18281;51.364;9.566;2022-12-07T08:52:53;11.32;;;5.88;;
31680;SDS011;18281;51.364;9.566;2022-12-07T08:55:22;12.50;;;6.07;;
31680;SDS011;18281;51.364;9.566;2022-12-07T08:57:48;13.25;;;7.20;;
31680;SDS011;18281;51.364;9.566;2022-12-07T09:00:15;14.07;;;7.00;;
31680;SDS011;18281;51.364;9.566;2022-12-07T09:02:42;10.90;;;7.10;;
31680;SDS011;18281;51.364;9.566;2022-12-07T09:05:09;16.13;;;8.25;;
31680;SDS011;18281;51.364;9.566;2022-12-07T09:07:35;16.08;;;7.63;;
31680;SDS011;18281;51.364;9.566;2022-12-07T09:10:02;18.33;;;8.80;;
31680;SDS011;18281;51.364;9.566;2022-12-07T09:12:28;19.30;;;8.82;;
31680;SDS011;18281;51.364;9.566;2022-12-07T09:14:53;16.63;;;9.20;;
31680;SDS011;18281;51.364;9.566;2022-12-07T09:17:19;17.67;;;9.65;;
31680;SDS011;18281;51.364;9.566;2022-12-07T09:19:44;14.52;;;7.32;;
31680;SDS011;18281;51.364;9.566;2022-12-07T09:22:09;13.77;;;7.95;;
31680;SDS011;18281;51.364;9.566;2022-12-07T09:24:35;17.15;;;8.10;;
31680;SDS011;18281;51.364;9.566;2022-12-07T09:27:01;12.07;;;7.57;;
31680;SDS011;18281;51.364;9.566;2022-12-07T09:29:26;14.90;;;7.10;;
31680;SDS011;18281;51.364;9.566;2022-12-07T09:31:52;14.95;;;7.72;;
31680;SDS011;18281;51.364;9.566;2022-12-07T09:34:17;15.27;;;6.88;;
31680;SDS011;18281;51.364;9.566;2022-12-07T09:36:43;9.90;;;6.05;;
31680;SDS011;18281;51.364;9.566;2022-12-07T09:39:08;9.77;;;6.10;;
31680;SDS011;18281;51.364;9.566;2022-12-07T09:41:34;9.38;;;5.57;;
31680;SDS011;18281;51.364;9.566;2022-12-07T09:44:05;7.40;;;4.95;;
31680;SDS011;18281;51.364;9.566;2022-12-07T09:46:35;11.45;;;5.07;;
31680;SDS011;18281;51.364;9.566;2022-12-07T09:49:03;14.65;;;5.60;;
31680;SDS011;18281;51.364;9.566;2022-12-07T09:51:29;10.15;;;5.72;;
31680;SDS011;18281;51.364;9.566;2022-12-07T09:53:55;13.93;;;6.35;;
31680;SDS011;18281;51.364;9.566;2022-12-07T09:56:22;7.53;;;5.13;;
31680;SDS011;18281;51.364;9.566;2022-12-07T09:58:49;10.00;;;5.43;;
31680;SDS011;18281;51.364;9.566;2022-12-07T10:01:16;9.43;;;5.07;;
31680;SDS011;18281;51.364;9.566;2022-12-07T10:03:53;9.80;;;5.13;;
31680;SDS011;18281;51.364;9.566;2022-12-07T10:08:49;7.80;;;4.97;;
31680;SDS011;18281;51.364;9.566;2022-12-07T10:11:14;12.82;;;5.10;;
31680;SDS011;18281;51.364;9.566;2022-12-07T10:13:48;11.55;;;5.25;;
31680;SDS011;18281;51.364;9.566;2022-12-07T10:18:49;6.70;;;4.57;;
31680;SDS011;18281;51.364;9.566;2022-12-07T10:21:17;8.27;;;4.45;;
31680;SDS011;18281;51.364;9.566;2022-12-07T10:29:17;7.88;;;4.07;;
31680;SDS011;18281;51.364;9.566;2022-12-07T10:31:50;7.45;;;4.10;;
31680;SDS011;18281;51.364;9.566;2022-12-07T10:34:24;9.20;;;3.97;;
31680;SDS011;18281;51.364;9.566;2022-12-07T10:36:51;9.35;;;3.75;;
31680;SDS011;18281;51.364;9.566;2022-12-07T10:39:18;6.13;;;3.72;;
31680;SDS011;18281;51.364;9.566;2022-12-07T10:41:58;7.70;;;3.80;;
31680;SDS011;18281;51.364;9.566;2022-12-07T10:44:26;5.70;;;2.97;;
31680;SDS011;18281;51.364;9.566;2022-12-07T10:55:20;8.63;;;3.55;;
31680;SDS011;18281;51.364;9.566;2022-12-07T11:07:22;5.30;;;2.60;;
31680;SDS011;18281;51.364;9.566;2022-12-07T11:10:08;6.28;;;2.78;;
31680;SDS011;18281;51.364;9.566;2022-12-07T11:27:00;6.20;;;2.95;;
31680;SDS011;18281;51.364;9.566;2022-12-07T11:32:25;7.50;;;3.38;;
31680;SDS011;18281;51.364;9.566;2022-12-07T11:38:08;9.18;;;3.60;;
31680;SDS011;18281;51.364;9.566;2022-12-07T11:40:36;6.13;;;2.97;;
31680;SDS011;18281;51.364;9.566;2022-12-07T11:45:47;4.80;;;3.25;;
31680;SDS011;18281;51.364;9.566;2022-12-07T11:51:03;5.75;;;3.30;;
31680;SDS011;18281;51.364;9.566;2022-12-07T11:53:38;6.07;;;3.15;;
31680;SDS011;18281;51.364;9.566;2022-12-07T11:58:56;6.38;;;2.50;;
31680;SDS011;18281;51.364;9.566;2022-12-07T12:04:02;9.70;;;3.10;;
31680;SDS011;18281;51.364;9.566;2022-12-07T12:06:30;7.95;;;2.78;;
31680;SDS011;18281;51.364;9.566;2022-12-07T12:16:49;7.82;;;2.55;;
31680;SDS011;18281;51.364;9.566;2022-12-07T12:22:41;3.83;;;2.30;;
31680;SDS011;18281;51.364;9.566;2022-12-07T12:25:21;6.07;;;2.90;;
31680;SDS011;18281;51.364;9.566;2022-12-07T12:30:30;5.47;;;2.10;;
31680;SDS011;18281;51.364;9.566;2022-12-07T12:33:14;6.43;;;2.30;;
31680;SDS011;18281;51.364;9.566;2022-12-07T12:36:43;7.50;;;2.50;;
31680;SDS011;18281;51.364;9.566;2022-12-07T12:46:56;5.05;;;2.30;;
31680;SDS011;18281;51.364;9.566;2022-12-07T12:49:40;8.35;;;2.70;;
31680;SDS011;18281;51.364;9.566;2022-12-07T12:54:57;7.80;;;2.28;;
31680;SDS011;18281;51.364;9.566;2022-12-07T12:57:30;3.90;;;2.50;;
31680;SDS011;18281;51.364;9.566;2022-12-07T12:59:57;10.32;;;2.67;;
31680;SDS011;18281;51.364;9.566;2022-12-07T13:02:32;10.05;;;2.53;;
31680;SDS011;18281;51.364;9.566;2022-12-07T13:12:57;7.22;;;2.60;;
31680;SDS011;18281;51.364;9.566;2022-12-07T13:15:42;4.97;;;1.75;;
31680;SDS011;18281;51.364;9.566;2022-12-07T13:18:25;4.28;;;1.88;;
31680;SDS011;18281;51.364;9.566;2022-12-07T13:21:46;3.13;;;1.85;;
31680;SDS011;18281;51.364;9.566;2022-12-07T13:23:57;4.82;;;1.73;;
31680;SDS011;18281;51.364;9.566;2022-12-07T13:26:39;6.43;;;2.83;;
31680;SDS011;18281;51.364;9.566;2022-12-07T13:37:08;4.75;;;2.90;;
31680;SDS011;18281;51.364;9.566;2022-12-07T13:39:44;5.90;;;2.45;;
31680;SDS011;18281;51.364;9.566;2022-12-07T13:42:24;6.07;;;2.70;;
31680;SDS011;18281;51.364;9.566;2022-12-07T13:44:52;8.35;;;3.03;;
31680;SDS011;18281;51.364;9.566;2022-12-07T13:50:25;6.28;;;3.25;;
31680;SDS011;18281;51.364;9.566;2022-12-07T13:52:57;4.35;;;3.03;;
31680;SDS011;18281;51.364;9.566;2022-12-07T13:55:23;3.28;;;2.25;;
31680;SDS011;18281;51.364;9.566;2022-12-07T13:57:50;7.78;;;3.80;;
31680;SDS011;18281;51.364;9.566;2022-12-07T14:00:21;10.07;;;4.13;;
31680;SDS011;18281;51.364;9.566;2022-12-07T14:05:25;7.50;;;3.80;;
31680;SDS011;18281;51.364;9.566;2022-12-07T14:13:50;9.55;;;4.82;;
31680;SDS011;18281;51.364;9.566;2022-12-07T14:16:04;7.22;;;3.85;;
31680;SDS011;18281;51.364;9.566;2022-12-07T14:18:47;12.75;;;5.32;;
31680;SDS011;18281;51.364;9.566;2022-12-07T14:23:40;8.20;;;4.57;;
31680;SDS011;18281;51.364;9.566;2022-12-07T14:28:39;15.73;;;5.50;;
31680;SDS011;18281;51.364;9.566;2022-12-07T14:31:11;12.00;;;5.40;;
31680;SDS011;18281;51.364;9.566;2022-12-07T14:33:46;10.88;;;5.05;;
31680;SDS011;18281;51.364;9.566;2022-12-07T14:36:12;9.32;;;4.93;;
31680;SDS011;18281;51.364;9.566;2022-12-07T14:38:38;10.48;;;4.40;;
31680;SDS011;18281;51.364;9.566;2022-12-07T14:41:04;7.07;;;4.30;;
31680;SDS011;18281;51.364;9.566;2022-12-07T14:43:54;7.70;;;4.88;;
31680;SDS011;18281;51.364;9.566;2022-12-07T14:46:19;10.50;;;4.20;;
31680;SDS011;18281;51.364;9.566;2022-12-07T14:48:44;10.90;;;4.53;;
31680;SDS011;18281;51.364;9.566;2022-12-07T14:51:10;8.85;;;3.65;;
31680;SDS011;18281;51.364;9.566;2022-12-07T14:53:39;7.78;;;3.20;;
31680;SDS011;18281;51.364;9.566;2022-12-07T14:56:11;6.57;;;3.13;;
31680;SDS011;18281;51.364;9.566;2022-12-07T14:58:36;5.68;;;3.08;;
31680;SDS011;18281;51.364;9.566;2022-12-07T15:01:02;6.00;;;3.17;;
31680;SDS011;18281;51.364;9.566;2022-12-07T15:03:28;8.77;;;3.08;;
31680;SDS011;18281;51.364;9.566;2022-12-07T15:05:54;6.00;;;2.63;;
31680;SDS011;18281;51.364;9.566;2022-12-07T15:08:20;4.28;;;2.63;;
31680;SDS011;18281;51.364;9.566;2022-12-07T15:10:45;5.00;;;2.38;;
31680;SDS011;18281;51.364;9.566;2022-12-07T15:13:11;3.97;;;2.10;;
31680;SDS011;18281;51.364;9.566;2022-12-07T15:15:55;7.43;;;2.40;;
31680;SDS011;18281;51.364;9.566;2022-12-07T15:18:21;10.00;;;2.42;;
31680;SDS011;18281;51.364;9.566;2022-12-07T15:20:48;5.00;;;2.42;;
31680;SDS011;18281;51.364;9.566;2022-12-07T15:23:13;5.88;;;3.30;;
31680;SDS011;18281;51.364;9.566;2022-12-07T15:25:43;11.05;;;3.33;;
31680;SDS011;18281;51.364;9.566;2022-12-07T15:28:09;10.65;;;4.15;;
31680;SDS011;18281;51.364;9.566;2022-12-07T15:30:39;10.18;;;4.60;;
31680;SDS011;18281;51.364;9.566;2022-12-07T15:33:05;10.05;;;4.65;;
31680;SDS011;18281;51.364;9.566;2022-12-07T15:35:30;16.33;;;6.25;;
31680;SDS011;18281;51.364;9.566;2022-12-07T15:37:56;9.90;;;5.13;;
31680;SDS011;18281;51.364;9.566;2022-12-07T15:40:21;12.30;;;6.25;;
31680;SDS011;18281;51.364;9.566;2022-12-07T15:42:47;17.10;;;7.68;;
31680;SDS011;18281;51.364;9.566;2022-12-07T15:45:12;12.50;;;6.63;;
31680;SDS011;18281;51.364;9.566;2022-12-07T15:47:42;13.45;;;7.65;;
31680;SDS011;18281;51.364;9.566;2022-12-07T15:50:10;13.40;;;7.15;;
31680;SDS011;18281;51.364;9.566;2022-12-07T15:52:38;10.02;;;6.07;;
31680;SDS011;18281;51.364;9.566;2022-12-07T15:55:04;10.95;;;5.95;;
31680;SDS011;18281;51.364;9.566;2022-12-07T15:57:30;12.95;;;5.25;;
31680;SDS011;18281;51.364;9.566;2022-12-07T15:59:56;12.13;;;5.32;;
31680;SDS011;18281;51.364;9.566;2022-12-07T16:02:22;11.15;;;4.65;;
31680;SDS011;18281;51.364;9.566;2022-12-07T16:04:48;11.38;;;4.80;;
31680;SDS011;18281;51.364;9.566;2022-12-07T16:07:14;7.15;;;4.65;;
31680;SDS011;18281;51.364;9.566;2022-12-07T16:09:41;11.73;;;4.53;;
31680;SDS011;18281;51.364;9.566;2022-12-07T16:12:07;8.63;;;3.75;;
31680;SDS011;18281;51.364;9.566;2022-12-07T16:14:32;6.63;;;3.15;;
31680;SDS011;18281;51.364;9.566;2022-12-07T16:16:58;7.13;;;2.75;;
31680;SDS011;18281;51.364;9.566;2022-12-07T16:19:24;5.80;;;3.35;;
31680;SDS011;18281;51.364;9.566;2022-12-07T16:21:49;7.25;;;2.90;;
31680;SDS011;18281;51.364;9.566;2022-12-07T16:24:15;7.15;;;2.83;;
31680;SDS011;18281;51.364;9.566;2022-12-07T16:26:41;5.82;;;2.72;;
31680;SDS011;18281;51.364;9.566;2022-12-07T16:29:07;11.18;;;3.40;;
31680;SDS011;18281;51.364;9.566;2022-12-07T16:31:35;6.35;;;3.67;;
31680;SDS011;18281;51.364;9.566;2022-12-07T16:34:01;4.05;;;3.00;;
31680;SDS011;18281;51.364;9.566;2022-12-07T16:36:26;8.48;;;3.10;;
31680;SDS011;18281;51.364;9.566;2022-12-07T16:38:52;6.15;;;3.75;;
31680;SDS011;18281;51.364;9.566;2022-12-07T16:41:18;6.40;;;3.63;;
31680;SDS011;18281;51.364;9.566;2022-12-07T16:43:43;6.25;;;3.50;;
31680;SDS011;18281;51.364;9.566;2022-12-07T16:46:09;5.05;;;3.55;;
31680;SDS011;18281;51.364;9.566;2022-12-07T16:48:38;8.60;;;3.58;;
31680;SDS011;18281;51.364;9.566;2022-12-07T16:51:06;8.13;;;3.38;;
31680;SDS011;18281;51.364;9.566;2022-12-07T16:53:36;7.60;;;3.67;;
31680;SDS011;18281;51.364;9.566;2022-12-07T16:56:02;13.18;;;3.92;;
31680;SDS011;18281;51.364;9.566;2022-12-07T16:58:28;6.88;;;3.50;;
31680;SDS011;18281;51.364;9.566;2022-12-07T17:00:55;4.35;;;3.47;;
31680;SDS011;18281;51.364;9.566;2022-12-07T17:03:22;8.43;;;4.13;;
31680;SDS011;18281;51.364;9.566;2022-12-07T17:05:47;6.65;;;3.63;;
31680;SDS011;18281;51.364;9.566;2022-12-07T17:08:14;9.05;;;4.25;;
31680;SDS011;18281;51.364;9.566;2022-12-07T17:10:40;13.68;;;4.45;;
31680;SDS011;18281;51.364;9.566;2022-12-07T17:13:07;11.23;;;4.15;;
31680;SDS011;18281;51.364;9.566;2022-12-07T17:15:59;7.57;;;3.88;;